O John Clark Restricted Landing Area [CLOSED]

Jump to: basic info | weather | comments

Related pages: nearby airports | nearby navaids | notams | map

Basic information (top)

Codes: 7IL2
Location: lon 42.368401, lat -87.991699, elev 790 ft / 241 m msl
Status: closed

Weather (top)

Current conditions for Waukegan Regional Airport 6nm (12km) ENE (rec'd 2015/01/27 03:06Z):

KUGN 270306Z AUTO 18004KT 1 3/4SM -SN BR BKN018 OVC030 M03/M04 A2990 RMK AO2 P0000 T10331044

Airport forecast for Kenosha Regional Airport 14nm (26km) NNE (rec'd 2015/01/26 00:24Z):

TAF KENW 262323Z 2700/2724 17006KT 5SM -SN SCT013 BKN020 OVC040 
     FM270300 15005KT 3SM BR OVC020 
     FM270700 11004KT P6SM OVC020 
     FM271200 05005KT P6SM OVC025 
     FM271700 05007KT P6SM BKN035

Latest comments (top)

No comments yet for O John Clark Restricted Landing Area

More... (top)

See also NOTAMs and nearby airports and navaids, or visit the O John Clark Restricted Landing Area page at the main OurAirports website..